Time;durP1;ratioP1;P1;durP2;ratioP2;P2;SDS_P1;SDS_P2;PMS_P1;PMS_P2;Temp;Humidity;BMP_temperature;BMP_pressure;BME280_temperature;BME280_humidity;BME280_pressure;Samples;Min_cycle;Max_cycle;Signal;HPM_P1;HPM_P2
2022/09/28 00:00:57;;;;;;;19.73;14.63;;;;;;;7.37;100.00;99524.72;5044841;28;20037;-63
2022/09/28 00:03:22;;;;;;;17.48;14.80;;;;;;;7.39;100.00;99527.22;5043602;28;20039;-64
2022/09/28 00:05:47;;;;;;;17.35;14.93;;;;;;;7.40;100.00;99532.44;5046265;28;20033;-64
2022/09/28 00:08:13;;;;;;;19.27;16.55;;;;;;;7.39;100.00;99532.66;5046316;28;20072;-64
2022/09/28 00:10:42;;;;;;;17.67;15.82;;;;;;;7.41;100.00;99527.81;5044715;28;20037;-64
2022/09/28 00:13:07;;;;;;;17.52;15.50;;;;;;;7.40;100.00;99524.25;5045067;28;20067;-64
2022/09/28 00:15:33;;;;;;;18.38;16.35;;;;;;;7.43;100.00;99521.03;5043965;28;20032;-64
2022/09/28 00:17:58;;;;;;;18.33;16.38;;;;;;;7.45;100.00;99518.03;5044252;28;20032;-64
2022/09/28 00:20:23;;;;;;;19.95;16.67;;;;;;;7.45;100.00;99516.16;5044252;28;20121;-64
2022/09/28 00:22:48;;;;;;;20.40;17.08;;;;;;;7.47;100.00;99511.28;5045899;28;20542;-65
2022/09/28 00:25:15;;;;;;;20.05;17.40;;;;;;;7.49;100.00;99511.84;5043769;28;20068;-64
2022/09/28 00:27:41;;;;;;;19.15;17.15;;;;;;;7.50;100.00;99512.66;5045165;28;20041;-64
2022/09/28 00:30:07;;;;;;;20.85;16.63;;;;;;;7.52;100.00;99510.53;5044805;28;20082;-64
2022/09/28 00:32:33;;;;;;;18.67;16.67;;;;;;;7.52;100.00;99505.09;5045337;28;20044;-64
2022/09/28 00:34:58;;;;;;;19.50;16.33;;;;;;;7.50;100.00;99499.88;5044134;28;20036;-64
2022/09/28 00:37:23;;;;;;;19.20;16.80;;;;;;;7.50;100.00;99499.00;5045410;28;20460;-64
2022/09/28 00:39:49;;;;;;;18.20;15.85;;;;;;;7.49;100.00;99494.63;5042958;28;20037;-65
2022/09/28 00:42:18;;;;;;;19.77;16.23;;;;;;;7.47;100.00;99504.97;5039281;28;20033;-64
2022/09/28 00:44:56;;;;;;;18.45;16.45;;;;;;;7.48;100.00;99501.16;5045815;28;20154;-64
2022/09/28 00:47:48;;;;;;;17.58;14.95;;;;;;;7.49;100.00;99498.19;5044095;28;20579;-64
2022/09/28 00:50:30;;;;;;;17.52;15.18;;;;;;;7.48;100.00;99493.81;5041269;28;20059;-64
2022/09/28 00:53:17;;;;;;;16.77;14.63;;;;;;;7.54;100.00;99492.00;5044537;28;20372;-64
2022/09/28 00:55:47;;;;;;;16.27;14.32;;;;;;;7.52;100.00;99489.50;5043830;28;20379;-64
2022/09/28 00:58:17;;;;;;;17.88;14.30;;;;;;;7.53;100.00;99495.81;5042727;28;20052;-64
2022/09/28 01:00:42;;;;;;;17.55;14.30;;;;;;;7.56;100.00;99492.59;5041148;28;20093;-64
2022/09/28 01:03:08;;;;;;;17.27;14.25;;;;;;;7.56;100.00;99492.59;5038624;28;20464;-64
2022/09/28 01:05:35;;;;;;;16.90;13.90;;;;;;;7.58;100.00;99495.91;5037662;28;20464;-64
2022/09/28 01:08:02;;;;;;;15.88;13.23;;;;;;;7.60;100.00;99490.19;5044008;28;20040;-64
2022/09/28 01:10:29;;;;;;;16.27;12.88;;;;;;;7.60;100.00;99487.44;5045355;28;20083;-64
2022/09/28 01:12:55;;;;;;;15.27;13.18;;;;;;;7.60;100.00;99485.53;5043930;28;20030;-64
2022/09/28 01:15:22;;;;;;;14.75;12.88;;;;;;;7.61;100.00;99489.13;5037787;28;20490;-64
2022/09/28 01:18:15;;;;;;;15.30;12.90;;;;;;;7.61;100.00;99484.50;5042819;28;20047;-64
2022/09/28 01:20:52;;;;;;;14.57;12.93;;;;;;;7.56;100.00;99487.13;5041379;28;20029;-64
2022/09/28 01:23:41;;;;;;;14.85;12.30;;;;;;;7.55;100.00;99482.72;5043123;28;20586;-64
2022/09/28 01:26:25;;;;;;;15.15;12.50;;;;;;;7.49;100.00;99484.53;5043734;28;20112;-64
2022/09/28 01:29:03;;;;;;;15.23;12.45;;;;;;;7.45;100.00;99496.19;5044932;28;20067;-64
2022/09/28 01:31:32;;;;;;;15.02;12.32;;;;;;;7.41;100.00;99498.59;5044172;28;20037;-64
2022/09/28 01:34:09;;;;;;;16.23;13.63;;;;;;;7.36;100.00;99493.03;5044188;28;20066;-64
2022/09/28 01:36:41;;;;;;;16.20;12.68;;;;;;;7.34;100.00;99497.88;5044365;28;20033;-64
2022/09/28 01:39:11;;;;;;;15.75;13.52;;;;;;;7.36;100.00;99505.84;5042468;28;20041;-64
2022/09/28 01:41:39;;;;;;;16.15;13.38;;;;;;;7.33;100.00;99496.22;5044649;28;20057;-64
2022/09/28 01:44:09;;;;;;;18.75;13.18;;;;;;;7.34;100.00;99497.88;5042142;28;20021;-64
2022/09/28 01:46:43;;;;;;;15.85;14.07;;;;;;;7.36;100.00;99505.84;5039638;28;20040;-64
2022/09/28 01:49:18;;;;;;;17.15;13.27;;;;;;;7.36;100.00;99500.41;5026483;28;20041;-64
2022/09/28 01:51:51;;;;;;;16.00;13.35;;;;;;;7.37;100.00;99499.31;5044516;28;20435;-64
2022/09/28 01:54:25;;;;;;;18.20;14.88;;;;;;;7.39;100.00;99503.44;5045017;28;20029;-64
2022/09/28 01:57:01;;;;;;;17.63;15.50;;;;;;;7.41;100.00;99492.31;5042611;28;20098;-64
2022/09/28 01:59:34;;;;;;;18.13;15.77;;;;;;;7.43;100.00;99498.34;5048907;28;20431;-65
2022/09/28 02:02:13;;;;;;;17.05;14.77;;;;;;;7.42;100.00;99494.78;5040933;28;20144;-64
2022/09/28 02:04:52;;;;;;;17.25;14.85;;;;;;;7.48;100.00;99492.97;5048674;28;20028;-64
2022/09/28 02:07:30;;;;;;;18.48;15.75;;;;;;;7.44;100.00;99495.34;5047864;28;20037;-64
2022/09/28 02:10:05;;;;;;;19.73;16.25;;;;;;;7.44;100.00;99492.63;5046771;28;20029;-64
2022/09/28 02:12:37;;;;;;;18.58;16.63;;;;;;;7.46;100.00;99492.41;5046869;28;20037;-64
2022/09/28 02:15:29;;;;;;;19.58;17.50;;;;;;;7.51;100.00;99490.59;5044130;28;20114;-64
2022/09/28 02:17:56;;;;;;;20.45;16.52;;;;;;;7.47;100.00;99489.41;5045841;28;20130;-64
2022/09/28 02:20:22;;;;;;;20.88;18.02;;;;;;;7.50;100.00;99490.81;5047327;28;20022;-64
2022/09/28 02:22:55;;;;;;;20.73;17.90;;;;;;;7.47;100.00;99488.59;5048782;28;20032;-64
2022/09/28 02:25:30;;;;;;;20.92;18.50;;;;;;;7.47;100.00;99492.16;5036271;28;20120;-64
2022/09/28 02:28:03;;;;;;;21.42;19.13;;;;;;;7.49;100.00;99489.16;5048354;28;20028;-64
2022/09/28 02:30:30;;;;;;;20.45;18.25;;;;;;;7.45;100.00;99494.31;5045370;28;21034;-64
2022/09/28 02:33:02;;;;;;;23.90;18.73;;;;;;;7.47;100.00;99485.84;5045799;28;20062;-64
2022/09/28 02:35:27;;;;;;;20.70;18.60;;;;;;;7.45;100.00;99490.72;5047558;28;20028;-64
2022/09/28 02:37:54;;;;;;;23.85;18.15;;;;;;;7.45;100.00;99496.19;5047289;28;20094;-64
2022/09/28 02:40:22;;;;;;;20.63;17.67;;;;;;;7.46;100.00;99497.88;5048570;28;20108;-64
2022/09/28 02:43:00;;;;;;;21.02;18.17;;;;;;;7.44;100.00;99492.63;5031891;28;21062;-64
2022/09/28 02:46:04;;;;;;;20.07;16.83;;;;;;;7.45;100.00;99493.44;5047859;28;20107;-64
2022/09/28 02:49:15;;;;;;;20.70;18.33;;;;;;;7.41;100.00;99495.84;5033916;28;20044;-64
2022/09/28 02:51:55;;;;;;;18.63;15.63;;;;;;;7.35;100.00;99494.09;5045662;28;20666;-64
2022/09/28 02:54:39;;;;;;;19.88;15.75;;;;;;;7.34;100.00;99486.97;5046756;28;20082;-64
2022/09/28 02:57:47;;;;;;;21.77;16.85;;;;;;;7.35;100.00;99493.25;5044436;28;20051;-64
2022/09/28 03:00:18;;;;;;;19.10;15.63;;;;;;;7.34;100.00;99502.53;5044605;28;20424;-64
2022/09/28 03:02:44;;;;;;;19.23;15.18;;;;;;;7.33;100.00;99500.88;5046893;28;20370;-64
2022/09/28 03:05:25;;;;;;;16.57;14.67;;;;;;;7.35;100.00;99504.19;5046868;28;20033;-64
2022/09/28 03:08:14;;;;;;;15.23;13.15;;;;;;;7.38;100.00;99498.25;5028858;28;20049;-64
2022/09/28 03:10:45;;;;;;;16.95;13.63;;;;;;;7.37;100.00;99505.59;5038428;28;20040;-65
2022/09/28 03:13:13;;;;;;;16.95;12.90;;;;;;;7.34;100.00;99495.16;5046472;28;20037;-64
2022/09/28 03:15:39;;;;;;;19.15;13.90;;;;;;;7.34;100.00;99491.59;5044908;28;20481;-64
2022/09/28 03:18:04;;;;;;;15.57;12.05;;;;;;;7.38;100.00;99490.03;5046041;28;20043;-64
2022/09/28 03:20:32;;;;;;;13.90;12.07;;;;;;;7.37;100.00;99493.84;5046567;28;20078;-64
2022/09/28 03:22:57;;;;;;;15.35;11.27;;;;;;;7.35;100.00;99498.72;5037470;28;20037;-64
2022/09/28 03:25:23;;;;;;;13.93;10.40;;;;;;;7.33;100.00;99485.31;5046666;28;20114;-64
2022/09/28 03:27:48;;;;;;;13.40;10.55;;;;;;;7.29;100.00;99492.31;5045119;28;20104;-65
2022/09/28 03:30:15;;;;;;;14.88;10.75;;;;;;;7.29;100.00;99497.78;5047689;28;20041;-64
2022/09/28 03:32:40;;;;;;;13.75;10.75;;;;;;;7.28;100.00;99498.88;5045773;28;20487;-64
2022/09/28 03:35:08;;;;;;;13.70;10.30;;;;;;;7.26;100.00;99501.03;5046520;28;20035;-64
2022/09/28 03:37:33;;;;;;;12.37;9.13;;;;;;;7.26;100.00;99504.56;5047337;28;20072;-64
2022/09/28 03:39:59;;;;;;;12.65;8.98;;;;;;;7.24;100.00;99495.78;5045778;28;20413;-64
2022/09/28 03:42:24;;;;;;;13.30;8.80;;;;;;;7.30;100.00;99502.19;5046657;28;20044;-64
2022/09/28 03:44:49;;;;;;;13.38;8.68;;;;;;;7.29;100.00;99498.59;5043127;28;20152;-64
2022/09/28 03:47:16;;;;;;;11.27;8.50;;;;;;;7.30;100.00;99507.66;5046898;28;20032;-64
2022/09/28 03:49:42;;;;;;;10.18;8.35;;;;;;;7.32;100.00;99496.47;5043262;28;20032;-64
2022/09/28 03:52:08;;;;;;;11.68;8.48;;;;;;;7.33;100.00;99503.59;5044906;28;20642;-64
2022/09/28 03:54:33;;;;;;;11.45;8.13;;;;;;;7.33;100.00;99501.69;5046596;28;20047;-64
2022/09/28 03:56:58;;;;;;;10.52;7.28;;;;;;;7.37;100.00;99504.78;5046591;28;20043;-64
2022/09/28 03:59:24;;;;;;;11.45;6.75;;;;;;;7.39;100.00;99511.66;5045723;28;20102;-64
2022/09/28 04:01:50;;;;;;;9.60;6.53;;;;;;;7.39;100.00;99510.81;5044909;28;20057;-65
2022/09/28 04:04:15;;;;;;;9.98;6.00;;;;;;;7.39;100.00;99505.34;5046184;28;20446;-64
2022/09/28 04:06:41;;;;;;;9.70;6.07;;;;;;;7.39;100.00;99503.44;5046166;28;20032;-64
2022/09/28 04:09:06;;;;;;;8.45;5.45;;;;;;;7.40;100.00;99499.66;5046220;28;20044;-64
2022/09/28 04:11:32;;;;;;;8.20;4.97;;;;;;;7.40;100.00;99494.22;5044653;28;20439;-64
2022/09/28 04:13:57;;;;;;;9.15;5.15;;;;;;;7.39;100.00;99498.00;5041316;28;20032;-64
2022/09/28 04:16:23;;;;;;;7.03;4.70;;;;;;;7.37;100.00;99502.06;5045832;28;20036;-64
2022/09/28 04:18:48;;;;;;;10.32;5.07;;;;;;;7.36;100.00;99498.50;5043469;28;20124;-65
2022/09/28 04:21:15;;;;;;;9.75;5.70;;;;;;;7.36;100.00;99497.66;5044588;28;20033;-65
2022/09/28 04:23:41;;;;;;;8.60;4.83;;;;;;;7.34;100.00;99497.88;5041720;28;20383;-64
2022/09/28 04:26:11;;;;;;;9.13;4.68;;;;;;;7.35;100.00;99501.44;5046248;28;20033;-63
2022/09/28 04:31:22;;;;;;;7.72;4.45;;;;;;;7.28;100.00;99493.41;5045924;28;20391;-64
2022/09/28 04:33:48;;;;;;;8.13;4.38;;;;;;;7.26;100.00;99485.47;5042731;28;20410;-64
2022/09/28 04:36:13;;;;;;;7.50;4.40;;;;;;;7.28;100.00;99488.75;5045491;28;20041;-64
2022/09/28 04:38:39;;;;;;;8.23;4.55;;;;;;;7.23;100.00;99491.41;5030317;28;20120;-64
2022/09/28 04:41:06;;;;;;;8.27;4.70;;;;;;;7.19;100.00;99489.38;5045753;28;20474;-64
2022/09/28 04:43:31;;;;;;;11.05;5.10;;;;;;;7.14;100.00;99483.81;5045074;28;20070;-64
2022/09/28 04:45:59;;;;;;;7.22;4.50;;;;;;;7.12;100.00;99495.00;5043138;28;20060;-64
2022/09/28 04:48:25;;;;;;;6.22;4.22;;;;;;;7.08;100.00;99492.97;5043681;28;20067;-64
2022/09/28 04:50:58;;;;;;;6.30;3.75;;;;;;;7.04;100.00;99500.81;5045510;28;20120;-64
2022/09/28 04:53:25;;;;;;;6.82;3.88;;;;;;;7.00;100.00;99507.84;5046297;28;20100;-64
2022/09/28 04:56:12;;;;;;;7.20;3.80;;;;;;;6.97;100.00;99503.69;5035176;28;20032;-64
2022/09/28 04:58:38;;;;;;;9.05;4.07;;;;;;;6.92;100.00;99516.41;5038867;28;20033;-64
2022/09/28 05:01:06;;;;;;;11.05;3.90;;;;;;;6.91;100.00;99518.31;5042026;28;20039;-64
2022/09/28 05:03:32;;;;;;;;;;;;;;;6.94;100.00;99515.06;5045165;28;20041;-64
2022/09/28 05:05:58;;;;;;;7.75;3.85;;;;;;;6.89;100.00;99520.41;5043644;28;19923;-64
2022/09/28 05:08:23;;;;;;;7.85;3.63;;;;;;;6.89;100.00;99514.13;5040846;28;20124;-64
2022/09/28 05:11:13;;;;;;;7.47;3.78;;;;;;;6.91;100.00;99522.94;5044673;28;20115;-65
2022/09/28 05:13:41;;;;;;;7.20;3.50;;;;;;;6.92;100.00;99517.22;5039871;28;20127;-63
2022/09/28 05:16:08;;;;;;;8.50;3.42;;;;;;;6.95;100.00;99515.94;5042621;28;20049;-63
2022/09/28 05:18:33;;;;;;;9.07;3.50;;;;;;;6.98;100.00;99512.69;5044843;28;20025;-63
2022/09/28 05:20:58;;;;;;;6.88;3.33;;;;;;;6.99;100.00;99517.09;5043834;28;20032;-63
2022/09/28 05:23:23;;;;;;;4.43;3.05;;;;;;;7.00;100.00;99514.13;5041771;28;20555;-63
2022/09/28 05:25:49;;;;;;;4.53;3.10;;;;;;;6.96;100.00;99518.41;5043997;28;20033;-64
2022/09/28 05:28:22;;;;;;;4.47;2.78;;;;;;;6.96;100.00;99520.31;5044301;28;20079;-63
2022/09/28 05:30:48;;;;;;;6.25;3.38;;;;;;;6.92;100.00;99525.41;5042872;28;20025;-63
2022/09/28 05:33:13;;;;;;;7.15;2.90;;;;;;;6.91;100.00;99523.75;5045205;28;20128;-63
2022/09/28 05:35:38;;;;;;;6.97;2.85;;;;;;;6.89;100.00;99517.69;5047480;28;20191;-63
2022/09/28 05:38:04;;;;;;;6.20;3.00;;;;;;;6.91;100.00;99531.13;5047833;28;21510;-63
2022/09/28 05:40:29;;;;;;;5.90;2.75;;;;;;;6.88;100.00;99521.50;5051345;28;20064;-63
2022/09/28 05:42:58;;;;;;;5.20;2.83;;;;;;;6.83;100.00;99524.09;5051422;28;20033;-63
2022/09/28 05:45:24;;;;;;;6.10;2.83;;;;;;;6.81;100.00;99529.00;5048537;28;20064;-63
2022/09/28 05:47:49;;;;;;;4.65;2.58;;;;;;;6.82;100.00;99527.09;5051277;28;20077;-63
2022/09/28 05:50:15;;;;;;;7.57;2.63;;;;;;;6.80;100.00;99530.06;5049619;28;20079;-63
2022/09/28 05:52:41;;;;;;;5.85;2.65;;;;;;;6.80;100.00;99534.69;5048967;28;20037;-63
2022/09/28 05:55:07;;;;;;;4.32;2.40;;;;;;;6.80;100.00;99531.97;5049914;28;20074;-63
2022/09/28 05:57:32;;;;;;;4.95;2.90;;;;;;;6.76;100.00;99528.88;5051241;28;20430;-62
2022/09/28 05:59:58;;;;;;;5.00;2.50;;;;;;;6.75;100.00;99525.31;5049510;28;20060;-63
2022/09/28 06:02:24;;;;;;;5.65;2.63;;;;;;;6.75;100.00;99528.03;5048648;28;20037;-63
2022/09/28 06:04:50;;;;;;;6.40;2.80;;;;;;;6.75;100.00;99536.22;5048812;28;20029;-64
2022/09/28 06:07:16;;;;;;;6.35;3.00;;;;;;;6.75;100.00;99535.41;5050472;28;20116;-63
2022/09/28 06:09:41;;;;;;;5.13;2.50;;;;;;;6.75;100.00;99541.69;5049338;28;20031;-63
2022/09/28 06:12:06;;;;;;;6.55;3.00;;;;;;;6.78;100.00;99545.00;5044973;28;20029;-63
2022/09/28 06:14:32;;;;;;;4.97;2.60;;;;;;;6.80;100.00;99542.88;5040596;28;20363;-64
2022/09/28 06:16:57;;;;;;;6.00;3.10;;;;;;;6.80;100.00;99545.59;5037990;28;20032;-63
2022/09/28 06:19:22;;;;;;;5.18;2.70;;;;;;;6.79;100.00;99550.22;5051655;28;20029;-63
2022/09/28 06:21:48;;;;;;;4.78;2.67;;;;;;;6.78;100.00;99561.38;5041133;28;20025;-63
2022/09/28 06:24:13;;;;;;;5.20;2.50;;;;;;;6.75;100.00;99560.78;5043023;28;20029;-63
2022/09/28 06:26:38;;;;;;;5.63;2.50;;;;;;;6.77;100.00;99549.63;5051207;28;20254;-63
2022/09/28 06:29:04;;;;;;;5.15;2.60;;;;;;;6.75;100.00;99551.78;5041940;28;20056;-63
2022/09/28 06:31:30;;;;;;;4.95;2.22;;;;;;;6.73;100.00;99556.63;5050529;28;20131;-63
2022/09/28 06:33:56;;;;;;;4.28;2.60;;;;;;;6.73;100.00;99557.44;5051506;28;20130;-63
2022/09/28 06:36:22;;;;;;;7.60;3.10;;;;;;;6.76;100.00;99558.88;5051733;28;20457;-64
2022/09/28 06:38:47;;;;;;;5.00;2.63;;;;;;;6.78;100.00;99559.47;5050672;28;20104;-63
2022/09/28 06:41:13;;;;;;;4.07;2.55;;;;;;;6.82;100.00;99562.56;5050570;28;20146;-63
2022/09/28 06:43:38;;;;;;;6.00;3.40;;;;;;;6.84;100.00;99569.44;5051352;28;20120;-63
2022/09/28 06:46:05;;;;;;;6.28;3.08;;;;;;;6.88;100.00;99565.16;5036585;28;20021;-63
2022/09/28 06:48:32;;;;;;;6.85;3.20;;;;;;;6.92;100.00;99565.53;5046547;28;20750;-63
2022/09/28 06:50:58;;;;;;;8.80;3.28;;;;;;;6.96;100.00;99572.19;5039430;28;20517;-63
2022/09/28 06:53:23;;;;;;;4.82;3.45;;;;;;;6.99;100.00;99566.22;5047305;28;20399;-63
2022/09/28 06:55:49;;;;;;;7.32;3.92;;;;;;;7.03;100.00;99568.22;5047121;28;20033;-64
2022/09/28 06:58:16;;;;;;;6.10;4.07;;;;;;;7.08;100.00;99578.44;5044011;28;20028;-64
2022/09/28 07:00:42;;;;;;;7.75;4.07;;;;;;;7.13;100.00;99573.09;5040522;28;20033;-63
2022/09/28 07:03:14;;;;;;;6.10;3.70;;;;;;;7.19;100.00;99574.84;5041399;28;20041;-63
2022/09/28 07:05:44;;;;;;;6.45;4.03;;;;;;;7.21;100.00;99582.84;5044675;28;20043;-63
2022/09/28 07:08:11;;;;;;;8.75;4.15;;;;;;;7.26;100.00;99582.94;5046491;28;20033;-64
2022/09/28 07:10:43;;;;;;;5.97;4.28;;;;;;;7.38;100.00;99581.00;5045203;28;20091;-63
2022/09/28 07:13:09;;;;;;;7.35;4.15;;;;;;;7.36;100.00;99576.88;5041529;28;20029;-64
2022/09/28 07:15:35;;;;;;;6.88;4.03;;;;;;;7.39;100.00;99576.38;5047433;28;20043;-63
2022/09/28 07:18:04;;;;;;;7.53;4.53;;;;;;;7.47;100.00;99578.75;5038943;28;20089;-63
2022/09/28 07:20:31;;;;;;;6.65;4.32;;;;;;;7.49;100.00;99582.03;5043202;28;20025;-63
2022/09/28 07:23:00;;;;;;;8.80;4.60;;;;;;;7.52;100.00;99582.41;5038424;28;20479;-63
2022/09/28 07:25:31;;;;;;;8.05;4.32;;;;;;;7.59;100.00;99593.19;5029509;28;21931;-63
2022/09/28 07:28:01;;;;;;;6.65;4.38;;;;;;;7.64;100.00;99595.19;5029182;28;20082;-63
2022/09/28 07:30:28;;;;;;;8.73;4.38;;;;;;;7.71;100.00;99601.38;5038477;28;20605;-63
2022/09/28 07:32:54;;;;;;;10.02;4.65;;;;;;;7.75;100.00;99592.41;5034908;28;20021;-64
2022/09/28 07:35:19;;;;;;;7.03;4.68;;;;;;;7.80;100.00;99599.88;5027200;28;20380;-63
2022/09/28 07:37:45;;;;;;;10.23;4.80;;;;;;;7.87;100.00;99603.31;5019420;28;20036;-64
2022/09/28 07:42:55;;;;;;;8.52;4.68;;;;;;;7.98;100.00;99599.72;5034395;28;20094;-63
2022/09/28 07:45:23;;;;;;;7.13;4.72;;;;;;;8.02;100.00;99598.16;5029116;28;20025;-63
2022/09/28 07:47:50;;;;;;;8.63;4.97;;;;;;;8.07;100.00;99603.72;5039951;28;20037;-65
2022/09/28 07:50:16;;;;;;;8.48;4.57;;;;;;;8.16;100.00;99606.03;5046281;28;20575;-62
2022/09/28 07:52:43;;;;;;;6.40;4.40;;;;;;;8.21;100.00;99606.13;5027864;28;20047;-63
2022/09/28 07:55:08;;;;;;;6.10;4.00;;;;;;;8.29;100.00;99609.31;5024756;28;20144;-63
2022/09/28 07:57:34;;;;;;;7.88;4.45;;;;;;;8.39;100.00;99605.13;5029241;28;20126;-63
2022/09/28 08:00:01;;;;;;;7.30;3.88;;;;;;;8.49;100.00;99605.31;5028420;28;20125;-63
2022/09/28 08:02:26;;;;;;;7.18;3.90;;;;;;;8.64;100.00;99608.31;5034558;28;20041;-63
2022/09/28 08:04:52;;;;;;;8.10;3.90;;;;;;;8.68;100.00;99609.47;5031359;28;20392;-63
2022/09/28 08:07:17;;;;;;;6.30;3.38;;;;;;;8.75;100.00;99603.81;5047337;28;20036;-63
2022/09/28 08:09:44;;;;;;;5.38;3.70;;;;;;;8.82;100.00;99605.31;5047075;28;20033;-63
2022/09/28 08:12:12;;;;;;;7.40;3.75;;;;;;;8.92;100.00;99614.75;5046473;28;20029;-63
2022/09/28 08:14:38;;;;;;;7.35;4.03;;;;;;;8.99;100.00;99616.25;5048794;28;20029;-63
2022/09/28 08:17:06;;;;;;;6.20;4.05;;;;;;;9.18;100.00;99621.47;5045486;28;20033;-63
2022/09/28 08:22:21;;;;;;;5.15;3.50;;;;;;;9.52;100.00;99613.97;5007322;28;20065;-63
2022/09/28 08:24:47;;;;;;;4.95;3.40;;;;;;;9.60;100.00;99621.78;5043542;28;20086;-63
2022/09/28 08:27:14;;;;;;;8.43;3.70;;;;;;;9.67;100.00;99625.13;5030058;28;20035;-63
2022/09/28 08:29:41;;;;;;;6.85;4.13;;;;;;;9.94;100.00;99629.88;5026774;28;20094;-63
2022/09/28 08:32:07;;;;;;;6.83;4.20;;;;;;;10.21;100.00;99629.91;5031147;28;20082;-63
2022/09/28 08:34:35;;;;;;;7.43;4.05;;;;;;;10.29;100.00;99638.53;5028218;28;20032;-63
2022/09/28 08:37:00;;;;;;;6.82;4.20;;;;;;;10.33;100.00;99627.84;5043292;28;20447;-63
2022/09/28 08:39:26;;;;;;;6.05;4.07;;;;;;;10.36;99.81;99635.56;5048123;28;20077;-63
2022/09/28 08:42:12;;;;;;;9.35;4.20;;;;;;;10.49;99.06;99642.53;5048087;28;20108;-63
2022/09/28 08:44:45;;;;;;;8.90;4.55;;;;;;;10.83;97.57;99643.97;5046569;28;20056;-63
2022/09/28 08:50:21;;;;;;;7.13;4.10;;;;;;;11.62;94.97;99650.56;5046707;28;20091;-63
2022/09/28 08:52:52;;;;;;;8.38;4.00;;;;;;;11.61;92.37;99648.91;5046194;28;20032;-63
2022/09/28 08:55:27;;;;;;;7.85;3.45;;;;;;;11.57;92.71;99645.03;5048494;28;20033;-63
2022/09/28 08:58:10;;;;;;;7.22;3.72;;;;;;;12.05;91.50;99648.56;5047698;28;20032;-63
2022/09/28 09:00:41;;;;;;;6.68;3.00;;;;;;;13.39;84.76;99654.81;5039374;28;20479;-63
2022/09/28 09:03:13;;;;;;;4.00;2.47;;;;;;;14.36;79.89;99648.91;5034895;28;20120;-64
2022/09/28 09:05:51;;;;;;;4.28;2.50;;;;;;;15.66;75.70;99649.28;5045744;28;20147;-64
2022/09/28 09:08:44;;;;;;;6.57;2.40;;;;;;;17.30;71.17;99651.38;5045865;28;20028;-64
2022/09/28 09:11:22;;;;;;;5.43;2.78;;;;;;;17.60;64.92;99652.78;5036438;28;20041;-64
2022/09/28 09:14:06;;;;;;;;;;;;;;;18.77;67.46;99652.28;5025979;28;20052;-65
2022/09/28 09:16:48;;;;;;;5.82;2.50;;;;;;;20.31;58.42;99660.19;5032630;28;20457;-66
2022/09/28 09:19:29;;;;;;;5.78;2.70;;;;;;;20.72;53.85;99649.44;5039364;28;20023;-65
2022/09/28 09:22:11;;;;;;;6.65;2.97;;;;;;;19.88;58.22;99658.91;5035483;28;20082;-65
2022/09/28 09:24:47;;;;;;;5.47;2.80;;;;;;;20.70;55.18;99665.69;5040150;28;20108;-65
2022/09/28 09:27:27;;;;;;;3.85;2.50;;;;;;;21.26;54.43;99657.47;5038868;28;20353;-65
2022/09/28 09:30:01;;;;;;;3.33;2.10;;;;;;;21.66;51.20;99663.63;5042579;28;20045;-65
2022/09/28 09:32:42;;;;;;;4.85;2.25;;;;;;;21.41;51.95;99672.91;5036673;28;20178;-65
2022/09/28 09:35:36;;;;;;;4.65;2.20;;;;;;;20.32;57.81;99679.38;5041215;28;20048;-65
2022/09/28 09:38:05;;;;;;;5.20;3.20;;;;;;;18.44;54.91;99676.66;5012765;28;20029;-65
2022/09/28 09:40:58;;;;;;;6.68;2.78;;;;;;;17.06;61.78;99681.19;5027086;28;20047;-65
2022/09/28 09:43:57;;;;;;;5.65;2.80;;;;;;;15.90;66.71;99681.66;5030777;28;20136;-64
2022/09/28 09:47:03;;;;;;;5.13;2.92;;;;;;;17.51;64.92;99678.78;5028066;28;20036;-65
2022/09/28 09:49:44;;;;;;;4.57;2.30;;;;;;;17.89;60.35;99683.09;5035007;28;20029;-65
2022/09/28 09:52:13;;;;;;;3.80;2.47;;;;;;;16.81;61.96;99680.47;5034444;28;20083;-65
2022/09/28 09:54:45;;;;;;;6.53;2.22;;;;;;;18.76;62.05;99672.09;5040215;28;20029;-64
2022/09/28 09:57:16;;;;;;;4.00;1.95;;;;;;;19.95;53.75;99683.53;5023551;28;20044;-65
2022/09/28 09:59:44;;;;;;;5.18;2.08;;;;;;;20.05;53.08;99690.78;5036885;28;20029;-64
2022/09/28 10:02:27;;;;;;;4.07;1.83;;;;;;;21.15;55.18;99687.69;5043441;28;20128;-65
2022/09/28 10:05:05;;;;;;;3.35;1.67;;;;;;;22.79;48.97;99677.03;5042744;28;20449;-65
2022/09/28 10:07:38;;;;;;;3.60;1.35;;;;;;;21.48;47.11;99674.03;5047156;28;20370;-64
2022/09/28 10:10:12;;;;;;;2.95;1.30;;;;;;;19.57;53.50;99681.19;5044593;28;20043;-64
2022/09/28 10:12:38;;;;;;;3.90;1.42;;;;;;;20.11;50.92;99679.16;5046890;28;20091;-64
2022/09/28 10:15:06;;;;;;;4.07;1.20;;;;;;;19.78;53.18;99683.47;5044972;28;20120;-64
2022/09/28 10:17:33;;;;;;;3.55;1.35;;;;;;;20.68;50.95;99690.31;5046800;28;20031;-64
2022/09/28 10:19:59;;;;;;;4.40;1.33;;;;;;;20.52;49.67;99679.94;5047284;28;20033;-65
2022/09/28 10:22:27;;;;;;;3.22;1.20;;;;;;;20.24;50.04;99685.75;5048940;28;20040;-64
2022/09/28 10:24:56;;;;;;;2.15;1.30;;;;;;;19.01;52.10;99682.63;5050858;28;20395;-64
2022/09/28 10:27:26;;;;;;;3.88;1.10;;;;;;;20.48;51.63;99677.00;5050705;28;20352;-64
2022/09/28 10:30:13;;;;;;;2.72;1.30;;;;;;;22.14;52.21;99679.25;5041491;28;20040;-64
2022/09/28 10:32:43;;;;;;;3.67;1.50;;;;;;;21.83;46.24;99671.13;5038658;28;20055;-64
2022/09/28 10:35:17;;;;;;;6.07;1.73;;;;;;;21.91;47.61;99675.06;5029378;28;20033;-65
2022/09/28 10:37:59;;;;;;;2.70;1.10;;;;;;;21.97;49.00;99668.94;5038121;28;20032;-64
2022/09/28 10:40:45;;;;;;;1.70;0.98;;;;;;;20.97;49.14;99677.69;5050259;28;20025;-64
2022/09/28 10:43:25;;;;;;;3.17;0.95;;;;;;;22.67;48.54;99672.19;5047849;28;20044;-64
2022/09/28 10:46:12;;;;;;;3.15;0.90;;;;;;;23.80;43.76;99663.59;5048883;28;20060;-65
2022/09/28 10:48:55;;;;;;;1.75;0.82;;;;;;;25.46;42.15;99664.75;5049734;28;20053;-65
2022/09/28 10:51:39;;;;;;;2.10;0.75;;;;;;;25.69;40.53;99665.75;5049158;28;20053;-65
2022/09/28 10:54:05;;;;;;;1.65;0.95;;;;;;;26.06;38.27;99665.56;5049190;28;20021;-64
2022/09/28 10:56:36;;;;;;;1.40;0.80;;;;;;;26.32;37.06;99662.97;5049566;28;20361;-65
2022/09/28 10:59:21;;;;;;;1.80;0.70;;;;;;;25.95;35.90;99665.25;5049384;28;20024;-64
2022/09/28 11:01:46;;;;;;;2.20;0.75;;;;;;;25.71;36.67;99656.97;5050089;28;20671;-64
2022/09/28 11:04:20;;;;;;;2.58;0.80;;;;;;;23.76;41.61;99673.84;5046115;28;20067;-64
2022/09/28 11:06:46;;;;;;;2.55;0.88;;;;;;;21.28;44.01;99676.66;5050488;28;20040;-64
2022/09/28 11:09:29;;;;;;;1.52;0.70;;;;;;;19.48;50.23;99663.59;5048626;28;20375;-64
2022/09/28 11:11:57;;;;;;;2.47;1.20;;;;;;;17.84;53.41;99666.50;5050398;28;20384;-64
2022/09/28 11:14:34;;;;;;;2.20;1.10;;;;;;;16.89;58.52;99669.84;5048956;28;20477;-65
2022/09/28 11:17:39;;;;;;;2.35;1.10;;;;;;;18.27;56.91;99671.75;5031684;28;20044;-65
2022/09/28 11:20:22;;;;;;;2.40;0.88;;;;;;;21.22;49.98;99657.28;5008226;28;20052;-65
2022/09/28 11:22:48;;;;;;;3.33;0.80;;;;;;;22.79;42.89;99652.66;5050643;28;20029;-64
2022/09/28 11:25:16;;;;;;;3.38;1.05;;;;;;;23.12;42.73;99654.72;5047605;28;20056;-65
2022/09/28 11:27:50;;;;;;;3.20;1.08;;;;;;;23.66;44.52;99663.09;5029804;28;20088;-64
2022/09/28 11:30:31;;;;;;;1.90;0.85;;;;;;;22.12;43.75;99661.19;5028964;28;20029;-64
2022/09/28 11:33:19;;;;;;;3.05;1.00;;;;;;;20.32;46.89;99657.06;5046044;28;20025;-64
2022/09/28 11:35:47;;;;;;;2.90;0.98;;;;;;;19.39;51.05;99662.72;5038988;28;20032;-64
2022/09/28 11:38:34;;;;;;;3.17;0.80;;;;;;;19.69;51.17;99661.13;5049795;28;20040;-64
2022/09/28 11:41:05;;;;;;;2.03;0.80;;;;;;;18.75;50.13;99649.00;5049459;28;20029;-64
2022/09/28 11:43:56;;;;;;;6.07;0.85;;;;;;;18.48;54.65;99666.56;5049467;28;20411;-64
2022/09/28 11:47:00;;;;;;;2.80;0.90;;;;;;;17.86;55.46;99672.56;5042645;28;20033;-64
2022/09/28 11:49:28;;;;;;;2.20;0.80;;;;;;;16.89;57.98;99665.13;4992250;28;20103;-64
2022/09/28 11:52:00;;;;;;;2.92;0.80;;;;;;;16.10;63.32;99662.03;5048773;28;20364;-64
2022/09/28 11:54:36;;;;;;;4.00;1.13;;;;;;;15.74;66.63;99672.72;5047984;28;20113;-64
2022/09/28 11:57:04;;;;;;;1.65;0.90;;;;;;;15.55;68.10;99653.22;5047153;28;20069;-64
2022/09/28 11:59:38;;;;;;;2.67;0.90;;;;;;;15.56;67.74;99650.19;5047132;28;20039;-64